createdAt,value
2023-06-30T00:02:10.743Z,8.83
2023-06-30T00:05:16.862Z,12.10
2023-06-30T00:08:20.429Z,9.60
2023-06-30T00:11:25.169Z,9.75
2023-06-30T00:14:28.150Z,11.80
2023-06-30T00:17:31.190Z,10.47
2023-06-30T00:20:35.136Z,9.23
2023-06-30T00:23:38.233Z,9.75
2023-06-30T00:26:41.834Z,10.38
2023-06-30T00:29:45.807Z,9.67
2023-06-30T00:32:48.919Z,9.53
2023-06-30T00:35:52.033Z,10.18
2023-06-30T00:38:56.084Z,9.55
2023-06-30T00:41:59.169Z,9.27
2023-06-30T00:45:02.398Z,9.00
2023-06-30T00:48:05.627Z,8.77
2023-06-30T00:51:08.951Z,10.52
2023-06-30T00:54:11.920Z,8.82
2023-06-30T00:57:14.889Z,10.05
2023-06-30T01:00:18.483Z,8.73
2023-06-30T01:03:37.367Z,11.80
2023-06-30T01:07:11.179Z,9.88
2023-06-30T01:10:15.460Z,9.13
2023-06-30T01:13:18.484Z,11.05
2023-06-30T01:16:21.603Z,10.97
2023-06-30T01:19:27.840Z,10.23
2023-06-30T01:22:33.324Z,9.23
2023-06-30T01:25:36.639Z,11.15
2023-06-30T01:28:39.713Z,12.73
2023-06-30T01:31:44.945Z,11.03
2023-06-30T01:34:48.058Z,10.40
2023-06-30T01:37:51.519Z,9.40
2023-06-30T01:40:54.894Z,10.13
2023-06-30T01:43:57.892Z,8.30
2023-06-30T01:47:01.153Z,10.50
2023-06-30T01:50:04.648Z,10.40
2023-06-30T01:53:07.626Z,8.93
2023-06-30T01:56:10.920Z,12.95
2023-06-30T01:59:13.882Z,10.55
2023-06-30T02:02:16.956Z,10.80
2023-06-30T02:05:19.983Z,12.27
2023-06-30T02:08:22.985Z,10.73
2023-06-30T02:11:25.980Z,10.00
2023-06-30T02:14:29.180Z,12.48
2023-06-30T02:17:33.339Z,11.73
2023-06-30T02:20:36.358Z,11.33
2023-06-30T02:23:39.304Z,10.00
2023-06-30T02:26:42.725Z,10.43
2023-06-30T02:29:45.671Z,9.52
2023-06-30T02:32:48.807Z,9.83
2023-06-30T02:35:52.150Z,11.23
2023-06-30T02:38:56.692Z,11.18
2023-06-30T02:41:59.753Z,11.20
2023-06-30T02:45:02.759Z,11.30
2023-06-30T02:48:05.960Z,10.80
2023-06-30T02:51:09.753Z,10.48
2023-06-30T02:54:12.768Z,13.13
2023-06-30T02:57:16.111Z,12.57
2023-06-30T03:00:19.717Z,12.57
2023-06-30T03:03:23.226Z,13.60
2023-06-30T03:06:26.720Z,14.07
2023-06-30T03:09:29.873Z,12.63
2023-06-30T03:12:32.899Z,13.00
2023-06-30T03:15:36.093Z,15.37
2023-06-30T03:18:39.172Z,14.27
2023-06-30T03:21:42.194Z,18.25
2023-06-30T03:24:45.246Z,15.70
2023-06-30T03:27:48.283Z,15.43
2023-06-30T03:30:51.842Z,14.30
2023-06-30T03:33:55.785Z,13.73
2023-06-30T03:36:58.748Z,12.02
2023-06-30T03:40:02.119Z,12.85
2023-06-30T03:43:05.692Z,12.18
2023-06-30T03:46:11.392Z,13.37
2023-06-30T03:49:14.521Z,13.63
2023-06-30T03:52:17.635Z,15.10
2023-06-30T03:55:20.643Z,13.90
2023-06-30T03:58:23.677Z,13.82
2023-06-30T04:01:27.400Z,13.97
2023-06-30T04:04:30.510Z,13.93
2023-06-30T04:07:33.792Z,13.02
2023-06-30T04:10:36.888Z,12.10
2023-06-30T04:13:39.885Z,13.15
2023-06-30T04:16:43.091Z,15.30
2023-06-30T04:19:46.196Z,11.47
2023-06-30T04:22:49.307Z,11.55
2023-06-30T04:25:52.321Z,11.00
2023-06-30T04:28:55.336Z,9.45
2023-06-30T04:31:58.398Z,9.70
2023-06-30T04:35:01.502Z,9.67
2023-06-30T04:38:04.492Z,9.32
2023-06-30T04:41:07.500Z,9.60
2023-06-30T04:44:11.103Z,10.95
2023-06-30T04:47:14.166Z,10.97
2023-06-30T04:50:17.297Z,10.83
2023-06-30T04:53:20.467Z,11.88
2023-06-30T04:56:23.471Z,15.57
2023-06-30T04:59:26.468Z,14.07
2023-06-30T05:02:29.523Z,17.63
2023-06-30T05:05:33.138Z,13.63
2023-06-30T05:08:36.110Z,12.88
2023-06-30T05:11:39.181Z,14.05
2023-06-30T05:14:42.166Z,13.10
2023-06-30T05:17:45.219Z,12.83
2023-06-30T05:20:48.224Z,11.47
2023-06-30T05:23:51.315Z,16.70
2023-06-30T05:26:55.355Z,13.25
2023-06-30T05:29:58.329Z,14.68
2023-06-30T05:33:01.392Z,10.57
2023-06-30T05:36:04.693Z,13.17
2023-06-30T05:39:07.846Z,15.27
2023-06-30T05:42:10.875Z,14.93
2023-06-30T05:45:13.884Z,18.25
2023-06-30T05:48:17.134Z,16.60
2023-06-30T05:51:20.532Z,12.37
2023-06-30T05:54:23.515Z,15.65
2023-06-30T05:57:28.068Z,19.27
2023-06-30T06:00:31.046Z,12.85
2023-06-30T06:03:34.430Z,15.97
2023-06-30T06:06:38.264Z,11.77
2023-06-30T06:09:41.381Z,15.45
2023-06-30T06:12:44.421Z,15.38
2023-06-30T06:15:47.484Z,13.57
2023-06-30T06:18:50.920Z,11.83
2023-06-30T06:21:53.896Z,15.07
2023-06-30T06:24:56.967Z,11.90
2023-06-30T06:27:59.991Z,13.52
2023-06-30T06:31:03.028Z,16.95
2023-06-30T06:34:06.056Z,11.47
2023-06-30T06:37:09.079Z,12.93
2023-06-30T06:40:12.340Z,14.18
2023-06-30T06:43:15.375Z,12.60
2023-06-30T06:46:18.495Z,12.63
2023-06-30T06:49:21.523Z,14.93
2023-06-30T06:52:24.510Z,8.77
2023-06-30T06:55:27.520Z,11.95
2023-06-30T06:58:31.667Z,13.45
2023-06-30T07:01:35.003Z,10.60
2023-06-30T07:04:38.067Z,12.40
2023-06-30T07:07:41.112Z,10.50
2023-06-30T07:10:45.627Z,10.15
2023-06-30T07:13:48.667Z,9.60
2023-06-30T07:16:52.353Z,9.70
2023-06-30T07:19:55.378Z,6.87
2023-06-30T07:22:58.499Z,8.93
2023-06-30T07:26:01.454Z,6.97
2023-06-30T07:29:04.436Z,8.75
2023-06-30T07:32:07.735Z,8.88
2023-06-30T07:35:10.777Z,8.67
2023-06-30T07:38:13.821Z,9.20
2023-06-30T07:41:16.835Z,11.10
2023-06-30T07:44:21.028Z,9.48
2023-06-30T07:47:24.102Z,8.35
2023-06-30T07:50:27.167Z,10.07
2023-06-30T07:53:30.266Z,9.80
2023-06-30T07:56:33.258Z,10.95
2023-06-30T07:59:36.981Z,11.30
2023-06-30T08:02:40.043Z,10.43
2023-06-30T08:05:43.344Z,11.47
2023-06-30T08:08:46.455Z,8.27
2023-06-30T08:11:49.482Z,7.78
2023-06-30T08:14:53.221Z,7.50
2023-06-30T08:17:58.661Z,7.50
2023-06-30T08:21:03.182Z,6.30
2023-06-30T08:24:06.396Z,6.97
2023-06-30T08:27:09.611Z,8.48
2023-06-30T08:30:12.715Z,7.55
2023-06-30T08:33:26.330Z,6.97
2023-06-30T08:36:38.659Z,6.07
2023-06-30T08:39:41.641Z,6.17
2023-06-30T08:42:45.708Z,8.63
2023-06-30T08:45:49.925Z,8.13
2023-06-30T08:48:53.131Z,9.50
2023-06-30T08:51:59.848Z,6.47
2023-06-30T08:55:04.072Z,6.43
2023-06-30T08:58:17.370Z,7.95
2023-06-30T09:01:21.128Z,9.32
2023-06-30T09:04:24.313Z,10.43
2023-06-30T09:07:27.911Z,6.60
2023-06-30T09:10:35.377Z,19.13
2023-06-30T09:13:39.359Z,11.88
2023-06-30T09:16:42.447Z,6.95
2023-06-30T09:19:46.148Z,8.55
2023-06-30T09:22:55.260Z,7.03
2023-06-30T09:26:01.632Z,5.77
2023-06-30T09:29:08.368Z,6.65
2023-06-30T09:32:11.412Z,6.25
2023-06-30T09:35:18.301Z,6.35
2023-06-30T09:38:22.377Z,8.20
2023-06-30T09:41:27.746Z,9.33
2023-06-30T09:44:30.964Z,6.15
2023-06-30T09:47:34.104Z,6.72
2023-06-30T09:50:37.094Z,9.63
2023-06-30T09:53:41.300Z,5.40
2023-06-30T09:56:45.695Z,8.97
2023-06-30T09:59:48.680Z,8.38
2023-06-30T10:03:04.029Z,6.57
2023-06-30T10:06:07.265Z,9.23
2023-06-30T10:09:10.377Z,5.70
2023-06-30T10:12:13.396Z,6.90
2023-06-30T10:15:16.458Z,7.15
2023-06-30T10:18:19.609Z,5.70
2023-06-30T10:21:22.973Z,6.20
2023-06-30T10:24:27.992Z,5.70
2023-06-30T10:27:30.998Z,6.57
2023-06-30T10:30:34.352Z,11.85
2023-06-30T10:33:38.048Z,6.55
2023-06-30T10:36:41.292Z,7.07
2023-06-30T10:39:44.643Z,6.63
2023-06-30T10:42:48.773Z,6.77
2023-06-30T10:46:10.431Z,6.90
2023-06-30T10:49:34.825Z,5.43
2023-06-30T10:52:37.939Z,6.28
2023-06-30T10:55:44.227Z,6.13
2023-06-30T10:58:47.254Z,6.53
2023-06-30T11:02:13.028Z,6.55
2023-06-30T11:05:23.543Z,6.57
2023-06-30T11:08:27.308Z,6.53
2023-06-30T11:11:30.666Z,6.33
2023-06-30T11:14:33.842Z,7.00
2023-06-30T11:17:57.713Z,6.60
2023-06-30T11:21:04.993Z,5.95
2023-06-30T11:24:16.365Z,6.15
2023-06-30T11:27:20.177Z,7.40
2023-06-30T11:30:23.730Z,5.93
2023-06-30T11:33:26.681Z,5.85
2023-06-30T11:36:32.324Z,6.15
2023-06-30T11:39:38.161Z,7.20
2023-06-30T11:42:41.664Z,5.83
2023-06-30T11:45:46.239Z,5.67
2023-06-30T11:48:50.027Z,6.35
2023-06-30T11:51:53.058Z,7.35
2023-06-30T11:54:57.780Z,7.60
2023-06-30T11:58:02.553Z,5.93
2023-06-30T12:01:06.393Z,7.13
2023-06-30T12:04:09.882Z,7.35
2023-06-30T12:07:15.118Z,6.43
2023-06-30T12:10:18.558Z,8.45
2023-06-30T12:13:21.540Z,6.50
2023-06-30T12:16:27.802Z,7.90
2023-06-30T12:19:30.974Z,7.53
2023-06-30T12:22:36.600Z,9.60
2023-06-30T12:25:39.600Z,6.63
2023-06-30T12:28:43.549Z,7.57
2023-06-30T12:31:48.405Z,5.90
2023-06-30T12:34:57.695Z,6.35
2023-06-30T12:38:01.007Z,7.20
2023-06-30T12:41:04.698Z,6.38
2023-06-30T12:44:08.547Z,6.73
2023-06-30T12:47:11.514Z,7.57
2023-06-30T12:50:14.512Z,7.38
2023-06-30T12:53:17.508Z,7.18
2023-06-30T12:56:20.579Z,10.18
2023-06-30T12:59:24.267Z,8.67
2023-06-30T13:02:27.361Z,5.70
2023-06-30T13:05:30.390Z,6.05
2023-06-30T13:08:33.371Z,7.25
2023-06-30T13:11:36.451Z,7.15
2023-06-30T13:14:39.435Z,6.17
2023-06-30T13:17:43.561Z,8.00
2023-06-30T13:20:46.641Z,6.25
2023-06-30T13:23:50.632Z,6.25
2023-06-30T13:26:53.648Z,6.07
2023-06-30T13:29:57.586Z,6.13
2023-06-30T13:33:00.592Z,6.07
2023-06-30T13:36:03.827Z,8.73
2023-06-30T13:39:06.867Z,6.72
2023-06-30T13:42:10.497Z,8.27
2023-06-30T13:45:13.568Z,6.43
2023-06-30T13:48:16.681Z,8.10
2023-06-30T13:51:19.704Z,6.28
2023-06-30T13:54:23.480Z,6.22
2023-06-30T13:57:27.407Z,7.13
2023-06-30T14:00:31.322Z,6.50
2023-06-30T14:03:36.661Z,5.95
2023-06-30T14:06:39.709Z,7.90
2023-06-30T14:09:42.854Z,5.43
2023-06-30T14:12:46.031Z,7.00
2023-06-30T14:15:49.172Z,5.90
2023-06-30T14:18:52.849Z,6.45
2023-06-30T14:21:55.868Z,6.50
2023-06-30T14:24:58.850Z,7.80
2023-06-30T14:28:02.075Z,7.32
2023-06-30T14:31:05.845Z,7.20
2023-06-30T14:34:10.543Z,6.72
2023-06-30T14:37:13.637Z,5.90
2023-06-30T14:40:16.782Z,5.97
2023-06-30T14:43:19.785Z,6.00
2023-06-30T14:46:22.792Z,6.33
2023-06-30T14:49:25.796Z,5.97
2023-06-30T14:52:28.762Z,6.63
2023-06-30T14:55:31.793Z,7.55
2023-06-30T14:58:34.841Z,7.05
2023-06-30T15:01:37.872Z,7.67
2023-06-30T15:04:40.942Z,6.32
2023-06-30T15:07:46.998Z,6.53
2023-06-30T15:10:50.672Z,6.32
2023-06-30T15:13:53.625Z,7.70
2023-06-30T15:16:56.630Z,7.57
2023-06-30T15:19:59.845Z,7.65
2023-06-30T15:23:03.718Z,6.68
2023-06-30T15:26:07.134Z,8.80
2023-06-30T15:29:10.786Z,8.32
2023-06-30T15:32:13.842Z,9.97
2023-06-30T15:35:16.972Z,7.55
2023-06-30T15:38:19.944Z,7.55
2023-06-30T15:41:23.688Z,6.45
2023-06-30T15:44:26.673Z,6.57
2023-06-30T15:47:29.745Z,6.33
2023-06-30T15:50:33.382Z,6.38
2023-06-30T15:53:36.510Z,7.53
2023-06-30T15:56:39.511Z,7.18
2023-06-30T15:59:42.478Z,6.55
2023-06-30T16:02:45.616Z,6.03
2023-06-30T16:05:49.048Z,5.75
2023-06-30T16:08:52.400Z,7.28
2023-06-30T16:11:55.393Z,5.60
2023-06-30T16:14:58.399Z,6.45
2023-06-30T16:18:01.458Z,6.63
2023-06-30T16:21:04.470Z,8.13
2023-06-30T16:24:07.786Z,7.40
2023-06-30T16:27:10.767Z,6.03
2023-06-30T16:30:21.900Z,6.95
2023-06-30T16:33:25.127Z,7.83
2023-06-30T16:36:28.184Z,5.63
2023-06-30T16:39:31.239Z,8.57
2023-06-30T16:42:34.267Z,6.50
2023-06-30T16:45:37.315Z,7.50
2023-06-30T16:48:40.357Z,6.53
2023-06-30T16:51:43.765Z,8.57
2023-06-30T16:54:46.788Z,7.47
2023-06-30T16:57:49.782Z,7.55
2023-06-30T17:00:52.970Z,6.28
2023-06-30T17:03:56.030Z,6.73
2023-06-30T17:06:58.982Z,10.30
2023-06-30T17:10:02.090Z,7.55
2023-06-30T17:13:06.727Z,9.13
2023-06-30T17:16:09.709Z,10.02
2023-06-30T17:19:13.941Z,6.40
2023-06-30T17:22:17.050Z,6.35
2023-06-30T17:25:20.102Z,9.90
2023-06-30T17:28:23.110Z,8.43
2023-06-30T17:31:26.180Z,5.57
2023-06-30T17:34:29.319Z,6.17
2023-06-30T17:37:32.388Z,5.75
2023-06-30T17:40:35.472Z,6.53
2023-06-30T17:43:38.626Z,6.68
2023-06-30T17:46:41.792Z,7.20
2023-06-30T17:49:44.774Z,10.53
2023-06-30T17:52:47.733Z,8.73
2023-06-30T17:55:53.756Z,6.38
2023-06-30T17:58:56.751Z,7.18
2023-06-30T18:01:59.973Z,6.38
2023-06-30T18:05:03.163Z,5.63
2023-06-30T18:08:06.356Z,6.20
2023-06-30T18:11:10.122Z,8.70
2023-06-30T18:14:13.184Z,6.68
2023-06-30T18:17:16.503Z,10.15
2023-06-30T18:20:19.606Z,4.50
2023-06-30T18:23:22.639Z,6.13
2023-06-30T18:26:25.679Z,5.25
2023-06-30T18:29:28.701Z,5.80
2023-06-30T18:32:33.131Z,5.13
2023-06-30T18:35:36.159Z,7.07
2023-06-30T18:38:39.164Z,5.20
2023-06-30T18:41:43.329Z,7.55
2023-06-30T18:44:46.433Z,5.72
2023-06-30T18:47:49.488Z,8.25
2023-06-30T18:50:52.636Z,7.53
2023-06-30T18:53:56.004Z,7.68
2023-06-30T18:56:59.034Z,6.97
2023-06-30T19:00:02.651Z,6.22
2023-06-30T19:03:05.879Z,9.07
2023-06-30T19:06:08.953Z,6.37
2023-06-30T19:09:12.460Z,7.72
2023-06-30T19:12:15.940Z,8.00
2023-06-30T19:15:19.402Z,9.35
2023-06-30T19:18:22.779Z,6.20
2023-06-30T19:21:25.883Z,8.47
2023-06-30T19:24:28.902Z,10.45
2023-06-30T19:27:31.939Z,8.02
2023-06-30T19:30:35.158Z,8.10
2023-06-30T19:33:38.364Z,8.18
2023-06-30T19:36:41.434Z,8.27
2023-06-30T19:39:45.527Z,11.65
2023-06-30T19:42:48.535Z,9.85
2023-06-30T19:45:51.594Z,9.35
2023-06-30T19:48:54.574Z,8.48
2023-06-30T19:51:57.922Z,10.50
2023-06-30T19:55:01.065Z,9.35
2023-06-30T19:58:04.117Z,10.13
2023-06-30T20:01:07.173Z,14.88
2023-06-30T20:04:11.273Z,9.13
2023-06-30T20:07:14.390Z,7.63
2023-06-30T20:10:17.521Z,8.60
2023-06-30T20:13:20.506Z,10.23
2023-06-30T20:16:23.527Z,7.68
2023-06-30T20:19:26.609Z,7.10
2023-06-30T20:22:31.440Z,8.93
2023-06-30T20:25:34.404Z,7.07
2023-06-30T20:28:38.187Z,7.57
2023-06-30T20:31:41.332Z,8.23
2023-06-30T20:34:44.367Z,8.68
2023-06-30T20:37:48.042Z,7.73
2023-06-30T20:40:51.165Z,7.03
2023-06-30T20:43:54.239Z,7.93
2023-06-30T20:46:57.391Z,10.45
2023-06-30T20:50:01.006Z,8.13
2023-06-30T20:53:04.013Z,10.70
2023-06-30T20:56:07.021Z,8.07
2023-06-30T20:59:09.982Z,10.13
2023-06-30T21:02:13.164Z,9.98
2023-06-30T21:05:16.255Z,7.05
2023-06-30T21:08:19.218Z,8.03
2023-06-30T21:11:22.711Z,7.47
2023-06-30T21:14:25.720Z,11.52
2023-06-30T21:17:28.797Z,10.18
2023-06-30T21:20:31.842Z,8.30
2023-06-30T21:23:34.813Z,10.80
2023-06-30T21:26:39.120Z,13.57
2023-06-30T21:29:42.101Z,8.77
2023-06-30T21:32:45.538Z,10.93
2023-06-30T21:35:48.558Z,9.65
2023-06-30T21:38:51.553Z,9.33
2023-06-30T21:41:54.526Z,11.07
2023-06-30T21:44:57.487Z,11.80
2023-06-30T21:48:00.655Z,10.77
2023-06-30T21:51:03.772Z,9.07
2023-06-30T21:54:07.083Z,13.27
2023-06-30T21:57:10.094Z,10.02
2023-06-30T22:00:13.700Z,11.80
2023-06-30T22:03:16.849Z,11.00
2023-06-30T22:06:19.956Z,8.48
2023-06-30T22:09:22.977Z,10.63
2023-06-30T22:12:26.228Z,13.15
2023-06-30T22:15:29.224Z,12.18
2023-06-30T22:18:32.355Z,11.18
2023-06-30T22:21:35.346Z,12.85
2023-06-30T22:24:38.431Z,10.27
2023-06-30T22:27:42.547Z,9.13
2023-06-30T22:30:45.774Z,13.98
2023-06-30T22:33:49.082Z,10.52
2023-06-30T22:36:52.051Z,17.85
2023-06-30T22:39:55.050Z,10.03
2023-06-30T22:42:58.015Z,11.27
2023-06-30T22:46:01.029Z,12.27
2023-06-30T22:49:04.769Z,12.60
2023-06-30T22:52:08.382Z,12.23
2023-06-30T22:55:11.392Z,11.67
2023-06-30T22:58:14.356Z,11.70
2023-06-30T23:01:17.972Z,15.65
2023-06-30T23:04:21.261Z,14.63
2023-06-30T23:07:24.439Z,14.85
2023-06-30T23:10:27.439Z,16.73
2023-06-30T23:13:30.423Z,13.15
2023-06-30T23:16:38.379Z,14.63
2023-06-30T23:19:42.709Z,11.90
2023-06-30T23:22:49.918Z,13.10
2023-06-30T23:25:53.985Z,10.13
2023-06-30T23:28:58.203Z,10.63
2023-06-30T23:32:07.103Z,9.32
2023-06-30T23:35:10.125Z,10.10
2023-06-30T23:38:13.132Z,10.77
2023-06-30T23:41:16.877Z,11.00
2023-06-30T23:44:19.888Z,10.18
2023-06-30T23:47:22.973Z,11.38
2023-06-30T23:50:25.991Z,10.68
2023-06-30T23:53:28.969Z,13.15
2023-06-30T23:56:31.945Z,15.27
2023-06-30T23:59:34.953Z,10.73
